sensor_id;sensor_type;location;lat;lon;timestamp;P1;durP1;ratioP1;P2;durP2;ratioP2
56481;SDS011;42384;45.186;19.958;2023-11-19T09:09:16;6.10;;;3.72;;
56481;SDS011;42384;45.186;19.958;2023-11-19T09:11:42;5.83;;;4.20;;
56481;SDS011;42384;45.186;19.958;2023-11-19T09:14:08;7.18;;;4.15;;
56481;SDS011;42384;45.186;19.958;2023-11-19T09:16:34;6.50;;;4.25;;
56481;SDS011;42384;45.186;19.958;2023-11-19T09:19:00;6.13;;;4.03;;
56481;SDS011;42384;45.186;19.958;2023-11-19T09:21:27;7.57;;;4.28;;
56481;SDS011;42384;45.186;19.958;2023-11-19T09:23:57;9.63;;;5.30;;
56481;SDS011;42384;45.186;19.958;2023-11-19T09:26:23;7.50;;;4.20;;
56481;SDS011;42384;45.186;19.958;2023-11-19T09:28:49;6.60;;;4.05;;
56481;SDS011;42384;45.186;19.958;2023-11-19T09:31:16;8.37;;;4.47;;
56481;SDS011;42384;45.186;19.958;2023-11-19T09:33:43;6.97;;;4.10;;
56481;SDS011;42384;45.186;19.958;2023-11-19T09:36:09;7.70;;;4.93;;
56481;SDS011;42384;45.186;19.958;2023-11-19T09:38:37;8.40;;;4.05;;
56481;SDS011;42384;45.186;19.958;2023-11-19T09:41:06;6.93;;;4.80;;
56481;SDS011;42384;45.186;19.958;2023-11-19T09:43:37;6.32;;;4.55;;
56481;SDS011;42384;45.186;19.958;2023-11-19T09:46:05;7.57;;;5.10;;
56481;SDS011;42384;45.186;19.958;2023-11-19T09:50:58;8.07;;;5.25;;
56481;SDS011;42384;45.186;19.958;2023-11-19T09:53:24;7.03;;;4.78;;
56481;SDS011;42384;45.186;19.958;2023-11-19T09:55:50;9.20;;;5.27;;
56481;SDS011;42384;45.186;19.958;2023-11-19T09:58:18;8.23;;;5.00;;
56481;SDS011;42384;45.186;19.958;2023-11-19T10:00:44;8.40;;;5.10;;
56481;SDS011;42384;45.186;19.958;2023-11-19T10:03:11;8.73;;;5.38;;
56481;SDS011;42384;45.186;19.958;2023-11-19T10:08:05;9.75;;;5.88;;
56481;SDS011;42384;45.186;19.958;2023-11-19T10:10:31;6.50;;;4.70;;
56481;SDS011;42384;45.186;19.958;2023-11-19T10:12:57;7.93;;;4.93;;
56481;SDS011;42384;45.186;19.958;2023-11-19T10:15:26;8.93;;;5.43;;
56481;SDS011;42384;45.186;19.958;2023-11-19T10:17:55;8.02;;;4.63;;
56481;SDS011;42384;45.186;19.958;2023-11-19T10:20:21;7.10;;;5.15;;
56481;SDS011;42384;45.186;19.958;2023-11-19T10:22:48;8.82;;;4.60;;
56481;SDS011;42384;45.186;19.958;2023-11-19T10:25:26;6.03;;;4.13;;
56481;SDS011;42384;45.186;19.958;2023-11-19T10:27:53;7.78;;;4.72;;
56481;SDS011;42384;45.186;19.958;2023-11-19T10:30:20;5.97;;;3.92;;
56481;SDS011;42384;45.186;19.958;2023-11-19T10:33:09;5.78;;;3.80;;
56481;SDS011;42384;45.186;19.958;2023-11-19T10:35:34;7.45;;;4.00;;
56481;SDS011;42384;45.186;19.958;2023-11-19T10:38:01;6.05;;;3.95;;
56481;SDS011;42384;45.186;19.958;2023-11-19T10:40:37;5.88;;;4.20;;
56481;SDS011;42384;45.186;19.958;2023-11-19T10:45:32;7.47;;;4.53;;
56481;SDS011;42384;45.186;19.958;2023-11-19T10:47:59;5.75;;;3.97;;
56481;SDS011;42384;45.186;19.958;2023-11-19T10:50:26;6.65;;;4.45;;
56481;SDS011;42384;45.186;19.958;2023-11-19T10:52:55;6.22;;;4.18;;
56481;SDS011;42384;45.186;19.958;2023-11-19T10:55:28;8.98;;;5.22;;
56481;SDS011;42384;45.186;19.958;2023-11-19T10:58:08;6.93;;;4.20;;
56481;SDS011;42384;45.186;19.958;2023-11-19T11:03:05;5.97;;;3.90;;
56481;SDS011;42384;45.186;19.958;2023-11-19T11:05:35;9.05;;;4.72;;
56481;SDS011;42384;45.186;19.958;2023-11-19T11:08:02;6.82;;;4.78;;
56481;SDS011;42384;45.186;19.958;2023-11-19T11:10:30;8.05;;;4.78;;
56481;SDS011;42384;45.186;19.958;2023-11-19T11:13:00;7.45;;;5.57;;
56481;SDS011;42384;45.186;19.958;2023-11-19T11:15:29;7.20;;;4.57;;
56481;SDS011;42384;45.186;19.958;2023-11-19T11:17:57;6.65;;;4.00;;
56481;SDS011;42384;45.186;19.958;2023-11-19T11:20:27;7.13;;;3.75;;
56481;SDS011;42384;45.186;19.958;2023-11-19T11:28:29;5.95;;;3.90;;
56481;SDS011;42384;45.186;19.958;2023-11-19T11:36:27;8.77;;;4.43;;
56481;SDS011;42384;45.186;19.958;2023-11-19T11:38:53;7.60;;;4.22;;
56481;SDS011;42384;45.186;19.958;2023-11-19T11:41:22;6.90;;;4.15;;
56481;SDS011;42384;45.186;19.958;2023-11-19T11:43:52;6.45;;;4.13;;
56481;SDS011;42384;45.186;19.958;2023-11-19T11:49:02;8.30;;;4.07;;
56481;SDS011;42384;45.186;19.958;2023-11-19T11:54:10;6.97;;;3.90;;
56481;SDS011;42384;45.186;19.958;2023-11-19T11:56:36;6.90;;;4.20;;
56481;SDS011;42384;45.186;19.958;2023-11-19T11:59:03;5.03;;;3.72;;
56481;SDS011;42384;45.186;19.958;2023-11-19T12:01:33;6.72;;;3.72;;
56481;SDS011;42384;45.186;19.958;2023-11-19T12:03:59;6.05;;;3.78;;
56481;SDS011;42384;45.186;19.958;2023-11-19T12:06:26;5.05;;;3.72;;
56481;SDS011;42384;45.186;19.958;2023-11-19T12:08:52;5.88;;;3.65;;
56481;SDS011;42384;45.186;19.958;2023-11-19T12:11:25;21.20;;;11.38;;
56481;SDS011;42384;45.186;19.958;2023-11-19T12:13:54;7.97;;;4.88;;
56481;SDS011;42384;45.186;19.958;2023-11-19T12:16:23;11.93;;;5.70;;
56481;SDS011;42384;45.186;19.958;2023-11-19T12:18:49;5.35;;;3.50;;
56481;SDS011;42384;45.186;19.958;2023-11-19T12:21:30;8.43;;;4.30;;
56481;SDS011;42384;45.186;19.958;2023-11-19T12:23:58;8.32;;;5.15;;
56481;SDS011;42384;45.186;19.958;2023-11-19T12:26:36;9.80;;;5.50;;
56481;SDS011;42384;45.186;19.958;2023-11-19T12:29:02;8.20;;;4.53;;
56481;SDS011;42384;45.186;19.958;2023-11-19T12:31:29;6.03;;;4.00;;
56481;SDS011;42384;45.186;19.958;2023-11-19T12:33:56;20.13;;;6.25;;
56481;SDS011;42384;45.186;19.958;2023-11-19T12:36:22;10.40;;;4.20;;
56481;SDS011;42384;45.186;19.958;2023-11-19T12:38:48;8.07;;;4.65;;
56481;SDS011;42384;45.186;19.958;2023-11-19T12:41:14;8.20;;;4.97;;
56481;SDS011;42384;45.186;19.958;2023-11-19T12:43:45;8.73;;;5.32;;
56481;SDS011;42384;45.186;19.958;2023-11-19T12:46:21;5.90;;;4.30;;
56481;SDS011;42384;45.186;19.958;2023-11-19T12:48:48;7.45;;;4.35;;
56481;SDS011;42384;45.186;19.958;2023-11-19T12:51:15;6.25;;;3.90;;
56481;SDS011;42384;45.186;19.958;2023-11-19T12:53:50;7.27;;;4.43;;
56481;SDS011;42384;45.186;19.958;2023-11-19T12:56:19;6.70;;;4.40;;
56481;SDS011;42384;45.186;19.958;2023-11-19T12:58:46;7.22;;;4.65;;
56481;SDS011;42384;45.186;19.958;2023-11-19T13:01:19;9.30;;;4.18;;
56481;SDS011;42384;45.186;19.958;2023-11-19T13:03:45;7.85;;;4.47;;
56481;SDS011;42384;45.186;19.958;2023-11-19T13:06:14;6.20;;;4.03;;
56481;SDS011;42384;45.186;19.958;2023-11-19T13:08:46;6.47;;;4.05;;
56481;SDS011;42384;45.186;19.958;2023-11-19T13:11:32;10.93;;;4.72;;
56481;SDS011;42384;45.186;19.958;2023-11-19T13:14:00;6.22;;;4.28;;
56481;SDS011;42384;45.186;19.958;2023-11-19T13:16:27;7.10;;;4.10;;
56481;SDS011;42384;45.186;19.958;2023-11-19T13:18:53;6.22;;;4.03;;
56481;SDS011;42384;45.186;19.958;2023-11-19T13:21:19;6.75;;;4.90;;
56481;SDS011;42384;45.186;19.958;2023-11-19T13:23:46;7.87;;;4.77;;
56481;SDS011;42384;45.186;19.958;2023-11-19T13:26:12;6.47;;;4.10;;
56481;SDS011;42384;45.186;19.958;2023-11-19T13:28:38;7.47;;;4.10;;
56481;SDS011;42384;45.186;19.958;2023-11-19T13:31:04;5.82;;;4.07;;
56481;SDS011;42384;45.186;19.958;2023-11-19T13:33:30;8.40;;;5.25;;
56481;SDS011;42384;45.186;19.958;2023-11-19T13:35:57;10.27;;;6.47;;
56481;SDS011;42384;45.186;19.958;2023-11-19T13:38:23;10.27;;;7.40;;
56481;SDS011;42384;45.186;19.958;2023-11-19T13:40:49;11.53;;;8.70;;
56481;SDS011;42384;45.186;19.958;2023-11-19T13:43:16;7.45;;;4.97;;
56481;SDS011;42384;45.186;19.958;2023-11-19T13:45:43;7.80;;;5.43;;
56481;SDS011;42384;45.186;19.958;2023-11-19T13:48:09;8.07;;;4.88;;
56481;SDS011;42384;45.186;19.958;2023-11-19T13:50:35;12.02;;;6.55;;
56481;SDS011;42384;45.186;19.958;2023-11-19T13:53:01;11.40;;;8.53;;
56481;SDS011;42384;45.186;19.958;2023-11-19T13:55:30;11.57;;;9.57;;
56481;SDS011;42384;45.186;19.958;2023-11-19T13:57:56;9.63;;;6.90;;
56481;SDS011;42384;45.186;19.958;2023-11-19T14:00:22;10.43;;;5.88;;
56481;SDS011;42384;45.186;19.958;2023-11-19T14:02:49;7.65;;;6.00;;
56481;SDS011;42384;45.186;19.958;2023-11-19T14:05:15;8.07;;;5.57;;
56481;SDS011;42384;45.186;19.958;2023-11-19T14:07:43;7.20;;;4.72;;
56481;SDS011;42384;45.186;19.958;2023-11-19T14:10:09;8.13;;;5.10;;
56481;SDS011;42384;45.186;19.958;2023-11-19T14:12:39;11.75;;;5.75;;
56481;SDS011;42384;45.186;19.958;2023-11-19T14:15:05;11.65;;;6.25;;
56481;SDS011;42384;45.186;19.958;2023-11-19T14:17:32;10.23;;;6.05;;
56481;SDS011;42384;45.186;19.958;2023-11-19T14:20:02;9.57;;;5.78;;
56481;SDS011;42384;45.186;19.958;2023-11-19T14:22:55;12.88;;;6.60;;
56481;SDS011;42384;45.186;19.958;2023-11-19T14:25:21;9.77;;;5.82;;
56481;SDS011;42384;45.186;19.958;2023-11-19T14:27:48;9.07;;;5.97;;
56481;SDS011;42384;45.186;19.958;2023-11-19T14:30:15;9.77;;;5.95;;
56481;SDS011;42384;45.186;19.958;2023-11-19T14:32:41;10.82;;;6.72;;
56481;SDS011;42384;45.186;19.958;2023-11-19T14:35:12;11.35;;;7.15;;
56481;SDS011;42384;45.186;19.958;2023-11-19T14:37:38;16.97;;;10.53;;
56481;SDS011;42384;45.186;19.958;2023-11-19T14:40:04;18.27;;;11.20;;
56481;SDS011;42384;45.186;19.958;2023-11-19T14:42:32;15.77;;;9.60;;
56481;SDS011;42384;45.186;19.958;2023-11-19T14:44:58;23.17;;;12.82;;
56481;SDS011;42384;45.186;19.958;2023-11-19T14:47:25;12.83;;;8.23;;
56481;SDS011;42384;45.186;19.958;2023-11-19T14:49:51;14.77;;;8.13;;
56481;SDS011;42384;45.186;19.958;2023-11-19T14:52:17;11.77;;;7.70;;
56481;SDS011;42384;45.186;19.958;2023-11-19T14:54:43;13.23;;;7.15;;
56481;SDS011;42384;45.186;19.958;2023-11-19T14:59:38;17.17;;;8.18;;
56481;SDS011;42384;45.186;19.958;2023-11-19T15:02:04;10.77;;;7.45;;
56481;SDS011;42384;45.186;19.958;2023-11-19T15:04:31;14.63;;;7.80;;
56481;SDS011;42384;45.186;19.958;2023-11-19T15:06:57;14.02;;;6.97;;
56481;SDS011;42384;45.186;19.958;2023-11-19T15:09:24;14.65;;;7.75;;
56481;SDS011;42384;45.186;19.958;2023-11-19T15:11:53;12.10;;;6.80;;
56481;SDS011;42384;45.186;19.958;2023-11-19T15:14:19;10.90;;;7.10;;
56481;SDS011;42384;45.186;19.958;2023-11-19T15:16:45;10.97;;;6.90;;
56481;SDS011;42384;45.186;19.958;2023-11-19T15:19:12;13.40;;;6.82;;
56481;SDS011;42384;45.186;19.958;2023-11-19T15:21:39;11.93;;;6.93;;
56481;SDS011;42384;45.186;19.958;2023-11-19T15:24:07;9.82;;;6.65;;
56481;SDS011;42384;45.186;19.958;2023-11-19T15:26:34;12.85;;;7.10;;
56481;SDS011;42384;45.186;19.958;2023-11-19T15:29:03;12.70;;;7.53;;
56481;SDS011;42384;45.186;19.958;2023-11-19T15:31:30;12.52;;;6.35;;
56481;SDS011;42384;45.186;19.958;2023-11-19T15:33:56;12.23;;;6.77;;
56481;SDS011;42384;45.186;19.958;2023-11-19T15:36:22;9.65;;;6.18;;
56481;SDS011;42384;45.186;19.958;2023-11-19T15:38:49;13.93;;;6.32;;
56481;SDS011;42384;45.186;19.958;2023-11-19T15:41:15;10.80;;;7.20;;
56481;SDS011;42384;45.186;19.958;2023-11-19T15:43:41;12.55;;;6.45;;
56481;SDS011;42384;45.186;19.958;2023-11-19T15:46:08;13.00;;;7.97;;
56481;SDS011;42384;45.186;19.958;2023-11-19T15:48:35;12.45;;;7.32;;
56481;SDS011;42384;45.186;19.958;2023-11-19T15:51:02;12.65;;;7.78;;
56481;SDS011;42384;45.186;19.958;2023-11-19T15:53:28;11.10;;;6.88;;
56481;SDS011;42384;45.186;19.958;2023-11-19T15:55:56;12.88;;;8.20;;
56481;SDS011;42384;45.186;19.958;2023-11-19T15:58:22;13.52;;;8.05;;
56481;SDS011;42384;45.186;19.958;2023-11-19T16:00:49;12.55;;;7.97;;
56481;SDS011;42384;45.186;19.958;2023-11-19T16:03:15;11.95;;;7.82;;
56481;SDS011;42384;45.186;19.958;2023-11-19T16:05:41;14.73;;;9.27;;
56481;SDS011;42384;45.186;19.958;2023-11-19T16:08:07;12.90;;;9.00;;
56481;SDS011;42384;45.186;19.958;2023-11-19T16:10:36;13.68;;;9.02;;
56481;SDS011;42384;45.186;19.958;2023-11-19T16:13:08;15.13;;;8.73;;
56481;SDS011;42384;45.186;19.958;2023-11-19T16:18:01;12.68;;;8.18;;
56481;SDS011;42384;45.186;19.958;2023-11-19T16:20:27;17.33;;;9.23;;
56481;SDS011;42384;45.186;19.958;2023-11-19T16:22:53;23.27;;;12.32;;
56481;SDS011;42384;45.186;19.958;2023-11-19T16:25:20;17.27;;;9.87;;
56481;SDS011;42384;45.186;19.958;2023-11-19T16:27:46;15.73;;;9.80;;
56481;SDS011;42384;45.186;19.958;2023-11-19T16:30:12;15.93;;;10.07;;
56481;SDS011;42384;45.186;19.958;2023-11-19T16:32:51;15.90;;;9.80;;
56481;SDS011;42384;45.186;19.958;2023-11-19T16:35:21;17.25;;;11.32;;
56481;SDS011;42384;45.186;19.958;2023-11-19T16:37:47;15.85;;;10.05;;
56481;SDS011;42384;45.186;19.958;2023-11-19T16:40:14;17.27;;;10.13;;
56481;SDS011;42384;45.186;19.958;2023-11-19T16:42:40;14.93;;;8.32;;
56481;SDS011;42384;45.186;19.958;2023-11-19T16:45:07;15.93;;;9.88;;
56481;SDS011;42384;45.186;19.958;2023-11-19T16:47:36;15.80;;;9.90;;
56481;SDS011;42384;45.186;19.958;2023-11-19T16:50:03;13.10;;;8.48;;
56481;SDS011;42384;45.186;19.958;2023-11-19T16:52:29;10.70;;;7.88;;
56481;SDS011;42384;45.186;19.958;2023-11-19T16:55:00;10.88;;;7.15;;
56481;SDS011;42384;45.186;19.958;2023-11-19T16:57:36;15.25;;;8.85;;
56481;SDS011;42384;45.186;19.958;2023-11-19T17:02:29;12.15;;;7.32;;
56481;SDS011;42384;45.186;19.958;2023-11-19T17:04:56;15.32;;;8.63;;
56481;SDS011;42384;45.186;19.958;2023-11-19T17:07:22;13.53;;;8.60;;
56481;SDS011;42384;45.186;19.958;2023-11-19T17:09:50;11.90;;;8.32;;
56481;SDS011;42384;45.186;19.958;2023-11-19T17:12:17;15.13;;;8.98;;
56481;SDS011;42384;45.186;19.958;2023-11-19T17:14:43;17.38;;;7.97;;
56481;SDS011;42384;45.186;19.958;2023-11-19T17:17:09;12.85;;;8.02;;
56481;SDS011;42384;45.186;19.958;2023-11-19T17:19:36;12.77;;;7.63;;
56481;SDS011;42384;45.186;19.958;2023-11-19T17:22:02;12.77;;;7.32;;
56481;SDS011;42384;45.186;19.958;2023-11-19T17:24:28;15.50;;;7.20;;
56481;SDS011;42384;45.186;19.958;2023-11-19T17:26:54;11.20;;;6.88;;
56481;SDS011;42384;45.186;19.958;2023-11-19T17:29:20;12.23;;;8.03;;
56481;SDS011;42384;45.186;19.958;2023-11-19T17:31:47;11.20;;;7.65;;
56481;SDS011;42384;45.186;19.958;2023-11-19T17:34:13;11.80;;;7.13;;
56481;SDS011;42384;45.186;19.958;2023-11-19T17:36:39;11.70;;;7.27;;
56481;SDS011;42384;45.186;19.958;2023-11-19T17:39:06;14.30;;;7.73;;
56481;SDS011;42384;45.186;19.958;2023-11-19T17:41:32;12.15;;;7.40;;
56481;SDS011;42384;45.186;19.958;2023-11-19T17:43:59;11.07;;;6.68;;
56481;SDS011;42384;45.186;19.958;2023-11-19T17:46:25;13.73;;;7.90;;
56481;SDS011;42384;45.186;19.958;2023-11-19T17:48:52;12.88;;;7.53;;
56481;SDS011;42384;45.186;19.958;2023-11-19T17:51:18;12.00;;;7.15;;
56481;SDS011;42384;45.186;19.958;2023-11-19T17:53:45;12.13;;;6.97;;
56481;SDS011;42384;45.186;19.958;2023-11-19T17:56:11;11.77;;;7.13;;
56481;SDS011;42384;45.186;19.958;2023-11-19T17:58:37;12.70;;;6.60;;
56481;SDS011;42384;45.186;19.958;2023-11-19T18:01:04;9.53;;;6.70;;
56481;SDS011;42384;45.186;19.958;2023-11-19T18:03:30;11.57;;;7.22;;
56481;SDS011;42384;45.186;19.958;2023-11-19T18:05:57;11.05;;;6.88;;
56481;SDS011;42384;45.186;19.958;2023-11-19T18:08:23;9.85;;;6.82;;
56481;SDS011;42384;45.186;19.958;2023-11-19T18:10:49;11.45;;;6.38;;
56481;SDS011;42384;45.186;19.958;2023-11-19T18:13:16;9.27;;;5.53;;
56481;SDS011;42384;45.186;19.958;2023-11-19T18:15:42;10.10;;;6.07;;
56481;SDS011;42384;45.186;19.958;2023-11-19T18:18:09;10.48;;;5.93;;
56481;SDS011;42384;45.186;19.958;2023-11-19T18:20:35;13.77;;;6.38;;
56481;SDS011;42384;45.186;19.958;2023-11-19T18:23:02;10.90;;;6.63;;
56481;SDS011;42384;45.186;19.958;2023-11-19T18:25:29;11.25;;;5.20;;
56481;SDS011;42384;45.186;19.958;2023-11-19T18:27:55;7.78;;;5.00;;
56481;SDS011;42384;45.186;19.958;2023-11-19T18:30:21;7.85;;;4.70;;
56481;SDS011;42384;45.186;19.958;2023-11-19T18:32:48;8.98;;;4.93;;
56481;SDS011;42384;45.186;19.958;2023-11-19T18:35:15;9.25;;;5.07;;
56481;SDS011;42384;45.186;19.958;2023-11-19T18:37:47;7.30;;;4.57;;
56481;SDS011;42384;45.186;19.958;2023-11-19T18:40:14;8.13;;;5.25;;
56481;SDS011;42384;45.186;19.958;2023-11-19T18:42:46;7.47;;;5.20;;
56481;SDS011;42384;45.186;19.958;2023-11-19T18:45:12;9.10;;;4.95;;
56481;SDS011;42384;45.186;19.958;2023-11-19T18:47:43;7.63;;;4.72;;
56481;SDS011;42384;45.186;19.958;2023-11-19T18:50:09;8.70;;;5.20;;
56481;SDS011;42384;45.186;19.958;2023-11-19T18:52:36;7.82;;;4.10;;
56481;SDS011;42384;45.186;19.958;2023-11-19T18:55:02;7.53;;;4.55;;
56481;SDS011;42384;45.186;19.958;2023-11-19T18:57:31;7.57;;;4.50;;
56481;SDS011;42384;45.186;19.958;2023-11-19T18:59:58;8.80;;;4.90;;
56481;SDS011;42384;45.186;19.958;2023-11-19T19:02:24;8.23;;;4.17;;
56481;SDS011;42384;45.186;19.958;2023-11-19T19:04:51;8.43;;;4.47;;
56481;SDS011;42384;45.186;19.958;2023-11-19T19:07:17;7.47;;;3.80;;
56481;SDS011;42384;45.186;19.958;2023-11-19T19:09:44;8.73;;;5.18;;
56481;SDS011;42384;45.186;19.958;2023-11-19T19:12:11;10.93;;;4.65;;
56481;SDS011;42384;45.186;19.958;2023-11-19T19:14:37;7.28;;;3.60;;
56481;SDS011;42384;45.186;19.958;2023-11-19T19:17:04;11.35;;;4.82;;
56481;SDS011;42384;45.186;19.958;2023-11-19T19:19:30;8.27;;;3.97;;
56481;SDS011;42384;45.186;19.958;2023-11-19T19:21:56;7.87;;;3.97;;
56481;SDS011;42384;45.186;19.958;2023-11-19T19:24:23;10.10;;;4.70;;
56481;SDS011;42384;45.186;19.958;2023-11-19T19:26:49;6.15;;;3.60;;
56481;SDS011;42384;45.186;19.958;2023-11-19T19:29:15;7.55;;;4.10;;
56481;SDS011;42384;45.186;19.958;2023-11-19T19:31:41;6.13;;;3.40;;
56481;SDS011;42384;45.186;19.958;2023-11-19T19:34:08;6.70;;;3.30;;
56481;SDS011;42384;45.186;19.958;2023-11-19T19:36:34;7.55;;;3.53;;
56481;SDS011;42384;45.186;19.958;2023-11-19T19:39:01;6.30;;;3.13;;
56481;SDS011;42384;45.186;19.958;2023-11-19T19:41:28;8.07;;;3.42;;
56481;SDS011;42384;45.186;19.958;2023-11-19T19:43:54;7.72;;;3.40;;
56481;SDS011;42384;45.186;19.958;2023-11-19T19:46:21;6.22;;;3.42;;
56481;SDS011;42384;45.186;19.958;2023-11-19T19:48:49;5.15;;;2.80;;
56481;SDS011;42384;45.186;19.958;2023-11-19T19:51:17;7.68;;;3.85;;
56481;SDS011;42384;45.186;19.958;2023-11-19T19:53:45;5.70;;;2.47;;
56481;SDS011;42384;45.186;19.958;2023-11-19T19:56:11;5.20;;;3.00;;
56481;SDS011;42384;45.186;19.958;2023-11-19T19:58:38;7.67;;;3.20;;
56481;SDS011;42384;45.186;19.958;2023-11-19T20:01:07;6.53;;;2.67;;
56481;SDS011;42384;45.186;19.958;2023-11-19T20:03:34;5.30;;;2.90;;
56481;SDS011;42384;45.186;19.958;2023-11-19T20:06:03;5.45;;;3.00;;
56481;SDS011;42384;45.186;19.958;2023-11-19T20:08:30;5.90;;;3.38;;
56481;SDS011;42384;45.186;19.958;2023-11-19T20:10:57;5.25;;;2.70;;
56481;SDS011;42384;45.186;19.958;2023-11-19T20:13:23;6.00;;;2.97;;
56481;SDS011;42384;45.186;19.958;2023-11-19T20:15:49;7.68;;;3.83;;
56481;SDS011;42384;45.186;19.958;2023-11-19T20:18:18;5.50;;;2.60;;
56481;SDS011;42384;45.186;19.958;2023-11-19T20:20:44;6.80;;;3.30;;
56481;SDS011;42384;45.186;19.958;2023-11-19T20:23:11;4.82;;;2.60;;
56481;SDS011;42384;45.186;19.958;2023-11-19T20:25:38;6.20;;;2.43;;
56481;SDS011;42384;45.186;19.958;2023-11-19T20:28:04;5.57;;;2.67;;
56481;SDS011;42384;45.186;19.958;2023-11-19T20:30:30;6.00;;;2.92;;
56481;SDS011;42384;45.186;19.958;2023-11-19T20:32:57;3.42;;;1.92;;
56481;SDS011;42384;45.186;19.958;2023-11-19T20:35:24;5.90;;;2.53;;
56481;SDS011;42384;45.186;19.958;2023-11-19T20:37:51;7.57;;;3.10;;
56481;SDS011;42384;45.186;19.958;2023-11-19T20:40:17;3.87;;;2.03;;
56481;SDS011;42384;45.186;19.958;2023-11-19T20:45:10;4.57;;;2.35;;
56481;SDS011;42384;45.186;19.958;2023-11-19T20:47:39;3.28;;;2.08;;
56481;SDS011;42384;45.186;19.958;2023-11-19T20:50:07;6.15;;;2.95;;
56481;SDS011;42384;45.186;19.958;2023-11-19T20:52:34;6.07;;;3.00;;
56481;SDS011;42384;45.186;19.958;2023-11-19T20:55:01;4.20;;;2.20;;
56481;SDS011;42384;45.186;19.958;2023-11-19T20:57:32;4.50;;;2.45;;
56481;SDS011;42384;45.186;19.958;2023-11-19T20:59:58;3.60;;;2.03;;
56481;SDS011;42384;45.186;19.958;2023-11-19T21:02:24;3.80;;;1.90;;
56481;SDS011;42384;45.186;19.958;2023-11-19T21:04:51;5.13;;;2.33;;
56481;SDS011;42384;45.186;19.958;2023-11-19T21:07:17;4.23;;;2.33;;
56481;SDS011;42384;45.186;19.958;2023-11-19T21:09:43;7.50;;;2.57;;
56481;SDS011;42384;45.186;19.958;2023-11-19T21:12:10;6.67;;;3.03;;
56481;SDS011;42384;45.186;19.958;2023-11-19T21:14:36;9.47;;;4.43;;
56481;SDS011;42384;45.186;19.958;2023-11-19T21:17:02;8.40;;;3.97;;
56481;SDS011;42384;45.186;19.958;2023-11-19T21:19:28;8.37;;;4.10;;
56481;SDS011;42384;45.186;19.958;2023-11-19T21:21:55;6.47;;;3.83;;
56481;SDS011;42384;45.186;19.958;2023-11-19T21:24:21;7.87;;;3.70;;
56481;SDS011;42384;45.186;19.958;2023-11-19T21:26:48;7.57;;;4.20;;
56481;SDS011;42384;45.186;19.958;2023-11-19T21:29:14;6.07;;;3.20;;
56481;SDS011;42384;45.186;19.958;2023-11-19T21:31:40;4.53;;;2.33;;
56481;SDS011;42384;45.186;19.958;2023-11-19T21:34:06;4.60;;;2.15;;
56481;SDS011;42384;45.186;19.958;2023-11-19T21:36:33;5.18;;;2.30;;
56481;SDS011;42384;45.186;19.958;2023-11-19T21:38:59;4.83;;;2.33;;
56481;SDS011;42384;45.186;19.958;2023-11-19T21:41:25;4.43;;;1.73;;
56481;SDS011;42384;45.186;19.958;2023-11-19T21:43:51;4.78;;;2.10;;
56481;SDS011;42384;45.186;19.958;2023-11-19T21:46:18;4.63;;;2.30;;
56481;SDS011;42384;45.186;19.958;2023-11-19T21:48:46;4.65;;;2.83;;
56481;SDS011;42384;45.186;19.958;2023-11-19T21:51:12;6.93;;;3.78;;
56481;SDS011;42384;45.186;19.958;2023-11-19T21:53:38;14.00;;;4.43;;
56481;SDS011;42384;45.186;19.958;2023-11-19T21:56:05;12.05;;;4.35;;
56481;SDS011;42384;45.186;19.958;2023-11-19T21:58:32;6.82;;;3.45;;
56481;SDS011;42384;45.186;19.958;2023-11-19T22:00:58;6.35;;;2.50;;
56481;SDS011;42384;45.186;19.958;2023-11-19T22:03:25;9.13;;;4.35;;
56481;SDS011;42384;45.186;19.958;2023-11-19T22:05:51;9.70;;;4.15;;
56481;SDS011;42384;45.186;19.958;2023-11-19T22:08:17;11.97;;;4.40;;
56481;SDS011;42384;45.186;19.958;2023-11-19T22:10:44;7.88;;;4.32;;
56481;SDS011;42384;45.186;19.958;2023-11-19T22:13:10;10.30;;;6.20;;
56481;SDS011;42384;45.186;19.958;2023-11-19T22:15:38;15.13;;;8.23;;
56481;SDS011;42384;45.186;19.958;2023-11-19T22:18:04;10.97;;;5.73;;
56481;SDS011;42384;45.186;19.958;2023-11-19T22:20:31;8.23;;;4.75;;
56481;SDS011;42384;45.186;19.958;2023-11-19T22:23:00;7.32;;;4.20;;
56481;SDS011;42384;45.186;19.958;2023-11-19T22:25:26;8.37;;;4.57;;
56481;SDS011;42384;45.186;19.958;2023-11-19T22:27:53;6.70;;;3.58;;
56481;SDS011;42384;45.186;19.958;2023-11-19T22:30:19;6.67;;;3.37;;
56481;SDS011;42384;45.186;19.958;2023-11-19T22:32:46;10.93;;;2.55;;
56481;SDS011;42384;45.186;19.958;2023-11-19T22:35:12;7.72;;;3.28;;
56481;SDS011;42384;45.186;19.958;2023-11-19T22:37:39;8.63;;;4.27;;
56481;SDS011;42384;45.186;19.958;2023-11-19T22:40:05;8.13;;;5.63;;
56481;SDS011;42384;45.186;19.958;2023-11-19T22:42:32;8.32;;;6.65;;
56481;SDS011;42384;45.186;19.958;2023-11-19T22:45:00;9.32;;;5.95;;
56481;SDS011;42384;45.186;19.958;2023-11-19T22:47:27;8.63;;;4.80;;
56481;SDS011;42384;45.186;19.958;2023-11-19T22:49:56;8.73;;;4.57;;
56481;SDS011;42384;45.186;19.958;2023-11-19T22:52:22;7.18;;;3.65;;
56481;SDS011;42384;45.186;19.958;2023-11-19T22:54:48;9.10;;;3.00;;
56481;SDS011;42384;45.186;19.958;2023-11-19T22:57:14;5.23;;;1.83;;
56481;SDS011;42384;45.186;19.958;2023-11-19T22:59:41;5.23;;;1.87;;
56481;SDS011;42384;45.186;19.958;2023-11-19T23:02:07;4.53;;;1.87;;
56481;SDS011;42384;45.186;19.958;2023-11-19T23:04:34;4.88;;;2.22;;
56481;SDS011;42384;45.186;19.958;2023-11-19T23:07:01;4.65;;;2.38;;
56481;SDS011;42384;45.186;19.958;2023-11-19T23:09:28;8.35;;;4.28;;
56481;SDS011;42384;45.186;19.958;2023-11-19T23:11:54;10.15;;;5.85;;
56481;SDS011;42384;45.186;19.958;2023-11-19T23:14:20;7.97;;;4.63;;
56481;SDS011;42384;45.186;19.958;2023-11-19T23:16:48;10.27;;;5.00;;
56481;SDS011;42384;45.186;19.958;2023-11-19T23:19:14;9.90;;;4.10;;
56481;SDS011;42384;45.186;19.958;2023-11-19T23:21:40;6.82;;;4.10;;
56481;SDS011;42384;45.186;19.958;2023-11-19T23:24:08;5.85;;;3.92;;
56481;SDS011;42384;45.186;19.958;2023-11-19T23:26:35;6.55;;;3.10;;
56481;SDS011;42384;45.186;19.958;2023-11-19T23:29:01;7.97;;;3.55;;
56481;SDS011;42384;45.186;19.958;2023-11-19T23:31:32;7.30;;;4.07;;
56481;SDS011;42384;45.186;19.958;2023-11-19T23:33:59;5.03;;;3.22;;
56481;SDS011;42384;45.186;19.958;2023-11-19T23:36:26;6.63;;;3.92;;
56481;SDS011;42384;45.186;19.958;2023-11-19T23:38:53;8.35;;;4.90;;
56481;SDS011;42384;45.186;19.958;2023-11-19T23:41:19;9.15;;;4.78;;
56481;SDS011;42384;45.186;19.958;2023-11-19T23:43:45;7.22;;;3.45;;
56481;SDS011;42384;45.186;19.958;2023-11-19T23:46:13;7.63;;;4.18;;
56481;SDS011;42384;45.186;19.958;2023-11-19T23:48:41;6.20;;;2.53;;
56481;SDS011;42384;45.186;19.958;2023-11-19T23:51:07;5.10;;;2.90;;
56481;SDS011;42384;45.186;19.958;2023-11-19T23:53:34;8.73;;;4.60;;
56481;SDS011;42384;45.186;19.958;2023-11-19T23:56:00;8.93;;;4.13;;
56481;SDS011;42384;45.186;19.958;2023-11-19T23:58:26;8.38;;;3.83;;
